Time;durP1;ratioP1;P1;durP2;ratioP2;P2;SDS_P1;SDS_P2;PMS_P1;PMS_P2;Temp;Humidity;BMP_temperature;BMP_pressure;BME280_temperature;BME280_humidity;BME280_pressure;Samples;Min_cycle;Max_cycle;Signal;HPM_P1;HPM_P2
2023/11/29 00:01:32;;;;;;;49.00;25.10;;;;;;;-2.75;77.02;97385.20;108718;1234;98137;-74
2023/11/29 00:03:59;;;;;;;47.90;24.50;;;;;;;-2.76;77.46;97390.95;108762;1238;96586;-75
2023/11/29 00:06:26;;;;;;;49.60;24.90;;;;;;;-2.77;77.36;97396.77;109033;1243;96582;-77
2023/11/29 00:08:56;;;;;;;50.30;26.60;;;;;;;-2.75;77.38;97398.92;109791;1230;96566;-74
2023/11/29 00:11:26;;;;;;;51.20;24.30;;;;;;;-2.76;77.34;97410.74;108534;1235;107680;-78
2023/11/29 00:13:53;;;;;;;53.20;27.80;;;;;;;-2.78;77.11;97414.83;108731;1234;96573;-75
2023/11/29 00:16:20;;;;;;;50.70;26.50;;;;;;;-2.78;77.24;97423.85;108839;1231;96621;-74
2023/11/29 00:18:48;;;;;;;53.20;26.90;;;;;;;-2.79;77.34;97426.00;108890;1234;96563;-76
2023/11/29 00:21:15;;;;;;;49.00;23.40;;;;;;;-2.80;77.29;97429.86;108652;1234;96585;-75
2023/11/29 00:23:41;;;;;;;48.00;25.30;;;;;;;-2.84;77.22;97432.44;108612;1231;96583;-78
2023/11/29 00:26:08;;;;;;;50.90;23.90;;;;;;;-2.83;77.40;97437.95;108671;1244;96576;-77
2023/11/29 00:28:35;;;;;;;49.20;23.90;;;;;;;-2.84;77.42;97444.06;108817;1230;97432;-74
2023/11/29 00:31:01;;;;;;;51.30;23.70;;;;;;;-2.87;77.35;97452.69;111631;1230;95028;-76
2023/11/29 00:33:28;;;;;;;43.60;21.80;;;;;;;-2.89;77.37;97459.05;108570;1231;96588;-76
2023/11/29 00:35:55;;;;;;;45.90;22.00;;;;;;;-2.91;77.27;97467.83;108716;1234;96634;-76
2023/11/29 00:38:23;;;;;;;48.70;23.40;;;;;;;-2.94;77.29;97472.98;108781;1234;96549;-76
2023/11/29 00:40:51;;;;;;;41.10;19.30;;;;;;;-2.93;77.58;97477.25;109195;1234;96554;-76
2023/11/29 00:43:18;;;;;;;46.00;21.90;;;;;;;-2.91;77.31;97479.95;108685;1231;97049;-76
2023/11/29 00:45:44;;;;;;;46.30;23.20;;;;;;;-2.93;77.28;97482.81;108765;1234;96544;-75
2023/11/29 00:48:11;;;;;;;42.90;20.60;;;;;;;-2.93;77.49;97484.20;109172;1231;96565;-75
2023/11/29 00:50:38;;;;;;;41.20;19.90;;;;;;;-2.93;77.45;97490.97;108697;1234;97820;-78
2023/11/29 00:53:04;;;;;;;40.80;19.30;;;;;;;-2.94;77.45;97494.13;108432;1238;96743;-76
2023/11/29 00:55:31;;;;;;;40.30;18.80;;;;;;;-2.92;77.51;97498.38;108554;1237;97847;-75
2023/11/29 00:58:03;;;;;;;42.50;20.80;;;;;;;-2.92;77.55;97502.53;108636;1234;96529;-76
2023/11/29 01:00:30;;;;;;;41.10;19.20;;;;;;;-2.94;77.55;97508.69;108658;1231;106053;-77
2023/11/29 01:02:56;;;;;;;36.60;17.90;;;;;;;-2.94;77.51;97513.05;108394;1235;96643;-76
2023/11/29 01:05:25;;;;;;;42.90;19.90;;;;;;;-2.95;77.59;97519.30;108787;1234;96637;-76
2023/11/29 01:07:52;;;;;;;38.80;17.50;;;;;;;-2.94;77.73;97525.88;108399;1243;97811;-76
2023/11/29 01:10:18;;;;;;;39.50;18.50;;;;;;;-2.96;77.39;97528.56;108692;1234;96634;-76
2023/11/29 01:12:47;;;;;;;41.80;19.70;;;;;;;-2.97;77.56;97526.52;108471;1244;97461;-80
2023/11/29 01:15:14;;;;;;;38.70;18.10;;;;;;;-2.95;77.71;97524.53;108842;1243;96573;-77
2023/11/29 01:17:40;;;;;;;36.50;16.20;;;;;;;-2.93;77.89;97531.20;108719;1234;96563;-77
2023/11/29 01:20:08;;;;;;;36.30;17.50;;;;;;;-2.91;77.79;97535.45;109517;1234;96588;-75
2023/11/29 01:22:34;;;;;;;39.30;17.30;;;;;;;-2.90;77.30;97539.75;108837;1244;96790;-75
2023/11/29 01:25:01;;;;;;;40.60;17.80;;;;;;;-2.91;77.61;97542.38;108944;1232;96601;-77
2023/11/29 01:27:30;;;;;;;36.70;15.90;;;;;;;-2.90;77.63;97539.76;108899;1231;97156;-76
2023/11/29 01:29:58;;;;;;;40.30;19.30;;;;;;;-2.91;77.70;97544.81;108792;1234;109861;-79
2023/11/29 01:32:24;;;;;;;35.60;17.70;;;;;;;-2.93;77.33;97552.56;108709;1234;96620;-76
2023/11/29 01:34:51;;;;;;;35.00;16.60;;;;;;;-2.94;77.79;97546.70;108700;1242;96650;-75
2023/11/29 01:37:18;;;;;;;37.90;16.90;;;;;;;-2.92;77.79;97551.80;108619;1231;97367;-76
2023/11/29 01:39:46;;;;;;;33.10;15.60;;;;;;;-2.95;77.65;97555.23;109118;1234;96554;-75
2023/11/29 01:42:13;;;;;;;35.20;15.90;;;;;;;-2.97;77.74;97559.48;108605;1234;97195;-77
2023/11/29 01:44:39;;;;;;;32.60;14.90;;;;;;;-3.00;77.63;97559.91;108432;1238;96563;-76
2023/11/29 01:47:08;;;;;;;34.40;15.00;;;;;;;-2.99;77.48;97567.18;109154;1237;96593;-76
2023/11/29 01:49:35;;;;;;;33.50;15.00;;;;;;;-3.01;77.70;97565.67;108432;1238;97367;-75
2023/11/29 01:52:02;;;;;;;33.10;14.40;;;;;;;-3.03;77.66;97567.50;108704;1243;96566;-76
2023/11/29 01:54:29;;;;;;;32.10;13.60;;;;;;;-3.04;77.80;97569.30;108497;1243;96955;-74
2023/11/29 01:56:56;;;;;;;32.70;14.40;;;;;;;-3.06;77.86;97572.67;109007;1234;96554;-77
2023/11/29 01:59:22;;;;;;;30.80;13.10;;;;;;;-3.06;77.73;97581.51;108607;1245;97685;-79
2023/11/29 02:01:49;;;;;;;32.10;14.20;;;;;;;-3.06;77.68;97581.67;108324;1237;96610;-75
2023/11/29 02:04:16;;;;;;;34.00;14.20;;;;;;;-3.07;77.49;97583.98;108637;1234;96566;-75
2023/11/29 02:06:43;;;;;;;34.40;14.00;;;;;;;-3.05;77.54;97594.31;109276;1234;108182;-75
2023/11/29 02:09:10;;;;;;;34.30;14.10;;;;;;;-3.05;77.42;97598.62;108512;1232;97798;-75
2023/11/29 02:11:40;;;;;;;33.20;14.80;;;;;;;-3.07;77.77;97606.52;109130;1231;97156;-75
2023/11/29 02:14:06;;;;;;;35.00;14.40;;;;;;;-3.08;77.71;97604.32;108653;1234;109638;-75
2023/11/29 02:16:34;;;;;;;31.00;13.50;;;;;;;-3.08;77.65;97608.48;108734;1231;96601;-75
2023/11/29 02:19:00;;;;;;;37.20;15.70;;;;;;;-3.08;77.74;97614.02;108609;1230;97787;-76
2023/11/29 02:21:27;;;;;;;33.10;15.60;;;;;;;-3.09;77.48;97611.66;108621;1244;96724;-74
2023/11/29 02:24:00;;;;;;;32.70;15.00;;;;;;;-3.11;77.48;97617.13;108827;1234;96585;-77
2023/11/29 02:26:28;;;;;;;34.40;14.70;;;;;;;-3.11;77.47;97624.91;108727;1234;109720;-75
2023/11/29 02:28:54;;;;;;;34.40;14.50;;;;;;;-3.11;77.61;97628.73;108706;1234;96630;-74
2023/11/29 02:31:21;;;;;;;35.50;14.30;;;;;;;-3.11;77.60;97627.51;108326;1243;97354;-74
2023/11/29 02:33:47;;;;;;;34.10;14.00;;;;;;;-3.13;77.49;97628.80;108944;1234;96576;-74
2023/11/29 02:36:14;;;;;;;34.50;14.30;;;;;;;-3.14;77.31;97627.24;108744;1234;96633;-76
2023/11/29 02:38:40;;;;;;;36.60;17.30;;;;;;;-3.13;77.74;97629.16;108481;1231;96560;-75
2023/11/29 02:41:06;;;;;;;35.50;14.80;;;;;;;-3.13;77.61;97631.91;108525;1236;96571;-75
2023/11/29 02:43:33;;;;;;;34.40;15.50;;;;;;;-3.15;77.42;97628.87;108391;1237;96612;-74
2023/11/29 02:46:00;;;;;;;35.70;15.40;;;;;;;-3.16;77.47;97628.72;108446;1243;96550;-76
2023/11/29 02:48:26;;;;;;;31.00;13.20;;;;;;;-3.16;77.58;97636.36;108605;1234;96644;-74
2023/11/29 02:50:53;;;;;;;35.00;15.20;;;;;;;-3.18;77.45;97635.92;108666;1234;96918;-76
2023/11/29 02:53:19;;;;;;;32.40;14.10;;;;;;;-3.20;77.63;97638.25;109749;1234;96614;-76
2023/11/29 02:55:46;;;;;;;37.10;15.80;;;;;;;-3.20;77.54;97648.13;108546;1234;96563;-75
2023/11/29 02:58:12;;;;;;;34.60;14.40;;;;;;;-3.20;77.42;97650.40;108862;1234;96582;-76
2023/11/29 03:00:39;;;;;;;34.40;16.00;;;;;;;-3.21;77.29;97654.77;108402;1238;107769;-74
2023/11/29 03:03:05;;;;;;;33.90;14.50;;;;;;;-3.21;77.50;97658.77;108701;1235;96572;-75
2023/11/29 03:05:32;;;;;;;34.00;14.20;;;;;;;-3.24;77.26;97658.52;108409;1237;96547;-74
2023/11/29 03:07:58;;;;;;;37.60;15.80;;;;;;;-3.25;77.37;97663.08;108731;1231;96588;-76
2023/11/29 03:10:24;;;;;;;35.20;15.60;;;;;;;-3.28;77.03;97658.17;108864;1234;107180;-76
2023/11/29 03:12:51;;;;;;;33.50;15.60;;;;;;;-3.31;77.34;97661.40;108806;1238;96567;-75
2023/11/29 03:15:18;;;;;;;33.90;15.80;;;;;;;-3.33;77.15;97661.48;108555;1234;96570;-75
2023/11/29 03:17:44;;;;;;;34.90;14.50;;;;;;;-3.36;77.37;97664.72;108990;1231;96570;-76
2023/11/29 03:20:11;;;;;;;34.00;14.90;;;;;;;-3.41;77.19;97668.89;108472;1231;96630;-76
2023/11/29 03:22:38;;;;;;;34.10;14.20;;;;;;;-3.44;77.39;97670.21;108652;1234;96588;-75
2023/11/29 03:25:05;;;;;;;34.50;15.50;;;;;;;-3.49;76.99;97678.02;108489;1232;96639;-76
2023/11/29 03:27:31;;;;;;;36.80;15.00;;;;;;;-3.52;77.13;97676.63;108729;1234;97794;-76
2023/11/29 03:29:58;;;;;;;32.30;13.50;;;;;;;-3.56;77.07;97681.95;108861;1234;96608;-75
2023/11/29 03:32:26;;;;;;;32.30;15.10;;;;;;;-3.60;77.53;97683.98;109020;1234;96590;-76
2023/11/29 03:34:54;;;;;;;35.60;14.20;;;;;;;-3.66;76.98;97687.69;108591;1236;96586;-74
2023/11/29 03:37:21;;;;;;;35.80;14.10;;;;;;;-3.69;77.10;97687.83;108692;1231;109770;-74
2023/11/29 03:39:47;;;;;;;34.00;14.50;;;;;;;-3.70;77.14;97692.88;108908;1234;96576;-74
2023/11/29 03:42:13;;;;;;;37.00;15.30;;;;;;;-3.74;76.91;97697.18;108393;1231;96557;-74
2023/11/29 03:44:40;;;;;;;33.00;14.80;;;;;;;-3.79;77.04;97703.58;109695;1234;96581;-76
2023/11/29 03:47:06;;;;;;;33.90;14.40;;;;;;;-3.83;77.03;97708.41;108671;1234;97727;-74
2023/11/29 03:49:33;;;;;;;35.40;15.60;;;;;;;-3.84;77.07;97712.44;108855;1234;97210;-77
2023/11/29 03:51:59;;;;;;;34.80;15.30;;;;;;;-3.88;77.04;97717.95;109127;1232;96656;-77
2023/11/29 03:54:26;;;;;;;39.20;17.60;;;;;;;-3.92;77.23;97722.56;108409;1234;97817;-74
2023/11/29 03:56:52;;;;;;;37.30;16.00;;;;;;;-3.95;77.13;97721.13;108573;1244;96562;-76
2023/11/29 03:59:19;;;;;;;38.90;16.50;;;;;;;-3.98;76.97;97726.09;110315;1234;96527;-75
2023/11/29 04:01:45;;;;;;;37.70;17.10;;;;;;;-4.01;77.02;97729.84;110521;1231;96535;-75
2023/11/29 04:04:12;;;;;;;40.90;18.30;;;;;;;-4.04;77.06;97731.30;109883;1234;96554;-75
2023/11/29 04:06:38;;;;;;;50.00;20.20;;;;;;;-4.07;76.95;97730.37;108363;1237;96591;-77
2023/11/29 04:09:05;;;;;;;46.80;21.30;;;;;;;-4.10;77.01;97725.63;108825;1234;96453;-75
2023/11/29 04:11:31;;;;;;;45.30;17.90;;;;;;;-4.13;76.91;97728.85;109011;1234;107265;-74
2023/11/29 04:13:58;;;;;;;42.90;18.10;;;;;;;-4.18;76.88;97727.10;109085;1231;96659;-74
2023/11/29 04:16:27;;;;;;;36.80;15.90;;;;;;;-4.22;76.87;97732.97;108480;1242;97477;-74
2023/11/29 04:18:54;;;;;;;34.30;14.50;;;;;;;-4.25;76.95;97736.17;108879;1234;97701;-75
2023/11/29 04:21:30;;;;;;;39.80;18.70;;;;;;;-4.29;76.80;97734.59;108750;1239;97354;-78
2023/11/29 04:23:56;;;;;;;48.80;19.20;;;;;;;-4.34;76.78;97736.50;110329;1234;107303;-74
2023/11/29 04:26:31;;;;;;;57.10;24.00;;;;;;;-4.38;76.88;97739.02;108896;1234;96529;-78
2023/11/29 04:28:59;;;;;;;60.60;24.70;;;;;;;-4.40;76.92;97739.47;109495;1232;96563;-73
2023/11/29 04:31:26;;;;;;;59.60;22.60;;;;;;;-4.41;76.76;97748.31;108786;1236;109592;-76
2023/11/29 04:33:53;;;;;;;55.20;22.00;;;;;;;-4.42;77.00;97752.50;108946;1234;97530;-79
2023/11/29 04:36:19;;;;;;;53.60;22.00;;;;;;;-4.42;76.81;97754.23;110111;1231;96598;-76
2023/11/29 04:38:48;;;;;;;59.00;24.70;;;;;;;-4.45;76.61;97758.34;108836;1234;97577;-76
2023/11/29 04:41:16;;;;;;;48.90;22.60;;;;;;;-4.46;76.88;97765.98;108991;1234;96570;-75
2023/11/29 04:43:43;;;;;;;47.80;19.70;;;;;;;-4.47;76.86;97770.13;108724;1234;96566;-76
2023/11/29 04:46:10;;;;;;;48.70;20.70;;;;;;;-4.47;76.72;97778.77;108308;1231;96613;-75
2023/11/29 04:48:36;;;;;;;51.30;21.30;;;;;;;-4.50;76.53;97785.65;108584;1238;96579;-75
2023/11/29 04:51:03;;;;;;;48.10;22.20;;;;;;;-4.53;76.69;97788.16;108629;1237;97472;-75
2023/11/29 04:53:30;;;;;;;46.80;20.50;;;;;;;-4.58;76.72;97795.77;109022;1234;96557;-74
2023/11/29 04:55:57;;;;;;;52.00;21.30;;;;;;;-4.64;76.75;97797.85;108441;1244;96586;-74
2023/11/29 04:58:23;;;;;;;48.70;22.30;;;;;;;-4.69;76.47;97796.45;110271;1232;107111;-80
2023/11/29 05:00:50;;;;;;;46.00;19.90;;;;;;;-4.68;76.55;97806.27;108931;1236;96609;-75
2023/11/29 05:03:20;;;;;;;47.60;20.70;;;;;;;-4.70;76.62;97803.23;108684;1234;96588;-75
2023/11/29 05:05:48;;;;;;;45.50;20.00;;;;;;;-4.75;76.60;97807.36;108665;1232;111687;-75
2023/11/29 05:08:15;;;;;;;50.20;22.10;;;;;;;-4.79;76.53;97809.19;108886;1241;96565;-80
2023/11/29 05:10:42;;;;;;;48.40;21.30;;;;;;;-4.80;76.63;97808.02;108808;1231;96611;-80
2023/11/29 05:13:09;;;;;;;50.80;22.00;;;;;;;-4.86;76.60;97805.27;109081;1231;96566;-78
2023/11/29 05:15:36;;;;;;;62.90;28.10;;;;;;;-4.86;76.46;97813.23;109705;1234;96553;-79
2023/11/29 05:18:04;;;;;;;52.80;23.20;;;;;;;-4.87;76.53;97817.22;109325;1238;96578;-79
2023/11/29 05:20:32;;;;;;;55.80;25.10;;;;;;;-4.88;76.48;97820.04;109744;1234;96550;-75
2023/11/29 05:22:58;;;;;;;62.10;25.50;;;;;;;-4.89;76.42;97823.34;108934;1231;97253;-77
2023/11/29 05:25:25;;;;;;;67.20;30.30;;;;;;;-4.92;76.27;97828.97;108411;1243;96632;-76
2023/11/29 05:27:52;;;;;;;63.30;27.70;;;;;;;-4.92;76.43;97840.21;109211;1234;96572;-76
2023/11/29 05:30:18;;;;;;;67.40;28.80;;;;;;;-4.95;76.41;97840.46;108638;1231;96601;-76
2023/11/29 05:32:46;;;;;;;65.30;28.40;;;;;;;-4.95;76.60;97847.89;108572;1234;107131;-76
2023/11/29 05:35:13;;;;;;;62.40;28.60;;;;;;;-4.95;76.47;97851.20;109743;1234;96575;-78
2023/11/29 05:37:41;;;;;;;56.80;27.20;;;;;;;-4.96;76.52;97859.17;111476;1231;94517;-77
2023/11/29 05:40:09;;;;;;;57.80;24.60;;;;;;;-4.97;76.48;97865.77;111717;1231;110719;-77
2023/11/29 05:42:35;;;;;;;70.30;28.90;;;;;;;-4.99;76.39;97867.05;111729;1231;95351;-78
2023/11/29 05:45:03;;;;;;;64.40;29.00;;;;;;;-5.00;76.40;97869.82;111677;1231;94392;-78
2023/11/29 05:47:31;;;;;;;63.20;27.90;;;;;;;-5.00;76.31;97872.44;111663;1231;94452;-78
2023/11/29 05:49:59;;;;;;;68.30;31.00;;;;;;;-5.03;76.36;97873.02;111708;1231;94402;-76
2023/11/29 05:52:26;;;;;;;70.80;28.60;;;;;;;-5.06;76.28;97873.30;110798;1234;109383;-75
2023/11/29 05:54:53;;;;;;;63.70;28.40;;;;;;;-5.11;76.21;97869.30;108848;1231;96551;-85
2023/11/29 05:57:20;;;;;;;68.50;28.90;;;;;;;-5.16;76.41;97877.39;108778;1234;96570;-74
2023/11/29 05:59:47;;;;;;;69.10;29.00;;;;;;;-5.15;76.36;97882.90;108918;1234;96650;-77
2023/11/29 06:02:14;;;;;;;62.30;25.70;;;;;;;-5.14;76.46;97883.55;108801;1238;96480;-77
2023/11/29 06:04:40;;;;;;;69.20;26.70;;;;;;;-5.11;76.51;97891.09;108963;1234;96672;-76
2023/11/29 06:07:07;;;;;;;66.00;30.50;;;;;;;-5.13;76.30;97902.54;109121;1232;96642;-75
2023/11/29 06:09:36;;;;;;;77.30;30.20;;;;;;;-5.15;76.42;97903.80;111403;1234;94821;-74
2023/11/29 06:12:04;;;;;;;65.60;28.00;;;;;;;-5.15;76.41;97910.04;108922;1232;96547;-74
2023/11/29 06:14:30;;;;;;;64.80;27.80;;;;;;;-5.16;76.35;97918.00;108571;1236;96621;-73
2023/11/29 06:16:57;;;;;;;59.60;25.50;;;;;;;-5.15;76.46;97921.27;111633;1231;94534;-76
2023/11/29 06:19:23;;;;;;;68.40;29.20;;;;;;;-5.15;76.26;97935.09;111698;1231;94483;-77
2023/11/29 06:21:54;;;;;;;63.80;29.00;;;;;;;-5.16;76.30;97938.76;109229;1237;96567;-76
2023/11/29 06:24:20;;;;;;;77.30;30.80;;;;;;;-5.16;76.32;97940.65;111564;1231;94481;-75
2023/11/29 06:26:47;;;;;;;74.90;32.40;;;;;;;-5.17;76.46;97941.36;111728;1231;94237;-75
2023/11/29 06:29:14;;;;;;;69.10;31.10;;;;;;;-5.17;76.32;97944.48;108469;1238;96637;-80
2023/11/29 06:31:41;;;;;;;73.90;32.30;;;;;;;-5.18;76.35;97950.55;108420;1242;96589;-76
2023/11/29 06:34:16;;;;;;;81.40;33.50;;;;;;;-5.17;76.37;97953.13;109161;1234;97591;-75
2023/11/29 06:36:43;;;;;;;68.70;30.00;;;;;;;-5.17;76.38;97949.30;108362;1241;110396;-84
2023/11/29 06:39:09;;;;;;;77.60;34.20;;;;;;;-5.17;76.32;97949.50;108561;1235;96650;-83
2023/11/29 06:41:36;;;;;;;72.20;32.00;;;;;;;-5.21;76.44;97953.21;108406;1236;97626;-83
2023/11/29 06:44:04;;;;;;;74.60;30.10;;;;;;;-5.21;76.25;97956.34;108759;1236;97542;-78
2023/11/29 06:46:34;;;;;;;78.20;33.90;;;;;;;-5.23;76.18;97956.73;110066;1234;96479;-73
2023/11/29 06:49:01;;;;;;;66.70;28.00;;;;;;;-5.25;76.37;97962.67;108856;1234;96756;-73
2023/11/29 06:51:28;;;;;;;77.90;34.20;;;;;;;-5.27;76.43;97966.33;108721;1234;97353;-81
2023/11/29 06:53:57;;;;;;;71.10;31.10;;;;;;;-5.25;76.40;97970.77;108923;1234;97487;-77
2023/11/29 06:56:24;;;;;;;73.00;31.60;;;;;;;-5.21;76.56;97975.52;108642;1234;96653;-77
2023/11/29 06:58:52;;;;;;;77.70;32.50;;;;;;;-5.18;76.49;97977.16;109321;1234;96633;-77
2023/11/29 07:01:18;;;;;;;76.60;32.10;;;;;;;-5.15;76.39;97984.38;108505;1234;96614;-72
2023/11/29 07:03:46;;;;;;;73.50;29.60;;;;;;;-5.13;76.54;97994.51;108859;1234;179106;-76
2023/11/29 07:06:24;;;;;;;112.30;45.50;;;;;;;-5.10;76.52;97998.75;108695;1245;107283;-75
2023/11/29 07:08:54;;;;;;;93.20;37.60;;;;;;;-5.05;76.48;98009.33;108307;1238;96566;-74
2023/11/29 07:11:21;;;;;;;78.20;33.50;;;;;;;-5.04;76.48;98015.86;108385;1244;96640;-76
2023/11/29 07:13:47;;;;;;;84.50;35.20;;;;;;;-5.02;76.47;98014.08;108947;1243;97848;-77
2023/11/29 07:17:20;;;;;;;76.30;30.90;;;;;;;-4.99;76.66;98016.09;109166;1242;96548;-80
2023/11/29 07:19:52;;;;;;;70.60;32.20;;;;;;;-4.92;76.57;98025.08;108688;1234;107527;-75
2023/11/29 07:22:19;;;;;;;77.10;32.40;;;;;;;-4.87;76.62;98027.69;108394;1237;96470;-78
2023/11/29 07:24:47;;;;;;;77.90;35.90;;;;;;;-4.82;76.63;98032.39;108613;1246;96634;-74
2023/11/29 07:27:16;;;;;;;79.10;32.00;;;;;;;-4.77;76.67;98040.56;108790;1234;110173;-77
2023/11/29 07:29:53;;;;;;;77.80;33.50;;;;;;;-4.70;76.58;98043.16;108492;1235;96572;-79
2023/11/29 07:38:18;;;;;;;76.30;31.80;;;;;;;-4.60;76.53;98052.05;108740;1235;96653;-83
2023/11/29 07:40:44;;;;;;;81.00;33.90;;;;;;;-4.55;76.66;98057.79;107485;1244;97562;-75
2023/11/29 07:43:11;;;;;;;76.60;31.70;;;;;;;-4.53;76.55;98060.35;108387;1244;96663;-76
2023/11/29 07:45:41;;;;;;;73.70;32.30;;;;;;;-4.52;76.67;98064.65;109081;1234;96492;-76
2023/11/29 07:48:08;;;;;;;71.70;31.40;;;;;;;-4.51;76.76;98069.29;109152;1234;106513;-81
2023/11/29 07:50:44;;;;;;;72.10;30.90;;;;;;;-4.49;76.72;98072.00;108180;1238;96662;-83
2023/11/29 07:53:12;;;;;;;76.10;35.80;;;;;;;-4.48;76.77;98077.86;108708;1235;97460;-81
2023/11/29 07:55:39;;;;;;;74.30;29.80;;;;;;;-4.44;76.72;98073.59;110091;1231;109390;-82
2023/11/29 07:58:14;;;;;;;65.50;28.20;;;;;;;-4.38;76.80;98075.87;110370;1234;96583;-77
2023/11/29 08:00:53;;;;;;;67.30;28.70;;;;;;;-4.39;76.61;98077.08;109168;1232;107461;-76
2023/11/29 08:03:20;;;;;;;80.60;33.50;;;;;;;-4.39;76.69;98077.95;108599;1234;96568;-75
2023/11/29 08:05:46;;;;;;;70.20;28.40;;;;;;;-4.38;76.69;98075.50;109337;1234;96550;-78
2023/11/29 08:08:13;;;;;;;67.50;30.40;;;;;;;-4.36;76.79;98077.35;108678;1232;96892;-77
2023/11/29 08:10:40;;;;;;;78.80;38.60;;;;;;;-4.33;76.85;98081.25;108677;1234;97794;-75
2023/11/29 08:13:11;;;;;;;75.50;35.80;;;;;;;-4.29;76.98;98082.02;108605;1238;97755;-75
2023/11/29 08:15:40;;;;;;;81.30;41.90;;;;;;;-4.26;76.87;98077.95;108470;1237;96647;-77
2023/11/29 08:18:09;;;;;;;67.70;33.90;;;;;;;-4.22;76.89;98080.77;109264;1234;109705;-74
2023/11/29 08:20:36;;;;;;;71.70;32.50;;;;;;;-4.17;76.95;98082.71;108657;1244;96624;-74
2023/11/29 08:23:03;;;;;;;65.20;28.80;;;;;;;-4.15;77.16;98086.45;109005;1234;96633;-85
2023/11/29 08:25:33;;;;;;;65.80;31.20;;;;;;;-4.13;76.94;98095.59;109489;1238;97584;-82
2023/11/29 08:28:40;;;;;;;68.50;31.10;;;;;;;-4.18;76.75;98087.77;109363;1237;97886;-80
2023/11/29 08:31:46;;;;;;;;;;;;;;;;;;;;;
2023/11/29 08:34:26;;;;;;;66.10;28.40;;;;;;;-4.14;76.93;98097.51;108219;1238;96806;-80
2023/11/29 08:36:56;;;;;;;69.00;30.90;;;;;;;-4.11;76.87;98096.56;108228;1244;107851;-79
2023/11/29 08:43:53;;;;;;;;;;;;;;;;;;;;;
2023/11/29 08:46:24;;;;;;;56.60;25.20;;;;;;;-3.99;77.04;98100.88;108910;1237;109286;-83
2023/11/29 08:48:51;;;;;;;57.10;25.30;;;;;;;-3.96;77.00;98101.33;108611;1241;96663;-80
2023/11/29 08:51:18;;;;;;;54.20;25.30;;;;;;;-3.95;77.00;98104.23;108234;1252;96835;-78
2023/11/29 08:53:44;;;;;;;55.80;24.20;;;;;;;-3.91;77.01;98108.44;108136;1238;96789;-77
2023/11/29 08:56:18;;;;;;;58.60;24.60;;;;;;;-3.86;76.96;98109.02;108179;1240;97773;-77
2023/11/29 08:58:48;;;;;;;57.60;25.60;;;;;;;-3.83;77.08;98109.60;109425;1237;110133;-78
2023/11/29 09:01:21;;;;;;;55.80;24.70;;;;;;;-3.81;77.02;98109.02;109277;1234;96477;-79
2023/11/29 09:03:48;;;;;;;57.40;26.50;;;;;;;-3.77;77.00;98111.86;109021;1235;107388;-81
2023/11/29 09:06:16;;;;;;;56.40;24.70;;;;;;;-3.70;77.35;98125.69;108960;1237;96451;-82
2023/11/29 09:08:44;;;;;;;58.50;25.60;;;;;;;-3.62;76.99;98128.89;108869;1237;96642;-84
2023/11/29 09:11:10;;;;;;;65.80;28.20;;;;;;;-3.62;77.01;98130.11;109763;1234;96596;-83
2023/11/29 09:13:39;;;;;;;61.10;26.20;;;;;;;-3.60;76.91;98131.59;109215;1236;96595;-82
2023/11/29 09:16:24;;;;;;;61.20;27.00;;;;;;;-3.57;77.01;98130.31;108986;1234;96556;-81
2023/11/29 09:18:54;;;;;;;57.70;25.60;;;;;;;-3.53;77.02;98130.58;108513;1237;96563;-83
2023/11/29 09:21:26;;;;;;;63.10;29.00;;;;;;;-3.51;77.05;98130.30;109431;1234;96590;-82
2023/11/29 09:23:54;;;;;;;63.90;28.50;;;;;;;-3.48;77.01;98132.45;110505;1234;109734;-82
2023/11/29 09:26:21;;;;;;;60.20;25.60;;;;;;;-3.49;77.01;98136.30;108691;1236;96703;-82
2023/11/29 09:28:56;;;;;;;60.10;25.80;;;;;;;-3.52;76.65;98135.17;108812;1234;107090;-82
2023/11/29 09:31:35;;;;;;;53.80;23.50;;;;;;;-3.55;76.91;98134.41;108843;1232;97829;-80
2023/11/29 09:34:13;;;;;;;58.30;25.80;;;;;;;-3.53;76.76;98133.48;108583;1238;96548;-79
2023/11/29 09:36:59;;;;;;;;;;;;;;;;;;;;;
2023/11/29 09:40:08;;;;;;;;;;;;;;;;;;;;;
2023/11/29 09:43:15;;;;;;;54.00;24.60;;;;;;;-3.45;77.04;98131.32;108816;1232;107501;-80
2023/11/29 09:45:50;;;;;;;54.10;26.60;;;;;;;-3.36;76.88;98130.34;108407;1237;96538;-80
2023/11/29 09:51:50;;;;;;;52.20;20.60;;;;;;;-3.25;76.86;98143.53;108562;1236;110342;-78
2023/11/29 09:54:24;;;;;;;50.90;19.90;;;;;;;-3.20;77.03;98143.38;108682;1234;97962;-80
2023/11/29 09:57:06;;;;;;;50.50;22.20;;;;;;;-3.16;76.97;98143.60;108691;1232;107502;-79
2023/11/29 09:59:50;;;;;;;55.10;23.80;;;;;;;-3.13;76.85;98143.69;108758;1234;97389;-77
2023/11/29 10:02:23;;;;;;;56.80;24.20;;;;;;;-3.15;76.90;98145.65;108438;1238;96556;-77
2023/11/29 10:05:31;;;;;;;50.10;21.60;;;;;;;-3.08;76.79;98151.17;108474;1244;110582;-76
2023/11/29 10:08:31;;;;;;;47.30;21.40;;;;;;;-3.08;76.91;98151.69;108434;1237;97674;-78
2023/11/29 10:11:15;;;;;;;51.20;20.50;;;;;;;-3.07;77.03;98155.64;108797;1236;110237;-78
2023/11/29 10:13:44;;;;;;;43.70;18.50;;;;;;;-3.06;76.71;98157.16;108220;1238;97462;-80
2023/11/29 10:16:27;;;;;;;43.70;19.90;;;;;;;-3.05;76.95;98159.04;108661;1235;96493;-78
2023/11/29 10:20:29;;;;;;;44.10;19.10;;;;;;;-3.05;77.15;98153.82;108394;1242;111403;-78
2023/11/29 10:24:34;;;;;;;66.60;26.60;;;;;;;-2.99;77.17;98163.00;109236;1246;96893;-80
2023/11/29 10:27:21;;;;;;;67.30;28.00;;;;;;;-3.02;76.62;98161.55;109616;1232;107871;-78
2023/11/29 10:29:56;;;;;;;58.90;27.10;;;;;;;-2.94;76.95;98174.67;110205;1232;96513;-78
2023/11/29 10:39:21;;;;;;;;;;;;;;;;;;;;;
2023/11/29 10:42:18;;;;;;;48.20;21.20;;;;;;;-2.83;76.89;98169.44;107452;1251;96750;-79
2023/11/29 10:45:03;;;;;;;54.00;24.40;;;;;;;-2.72;76.85;98172.91;107079;1245;107620;-78
2023/11/29 10:47:44;;;;;;;48.90;24.60;;;;;;;-2.67;77.12;98170.48;108321;1248;96698;-79
2023/11/29 10:51:03;;;;;;;45.00;19.70;;;;;;;-2.66;76.57;98173.92;108751;1239;96572;-78
2023/11/29 10:54:30;;;;;;;45.00;21.70;;;;;;;-2.77;77.00;98176.55;108055;1235;110244;-79
2023/11/29 10:57:55;;;;;;;46.50;20.00;;;;;;;-2.80;76.91;98179.22;108178;1246;96771;-80
2023/11/29 11:03:47;;;;;;;46.90;20.50;;;;;;;-2.90;76.29;98181.80;102270;1295;635771;-81
2023/11/29 11:06:22;;;;;;;43.90;20.40;;;;;;;-2.97;76.35;98187.59;106367;1263;94752;-83
2023/11/29 11:08:55;;;;;;;46.90;22.10;;;;;;;-3.03;76.56;98187.75;105804;1258;94293;-80
2023/11/29 11:11:44;;;;;;;43.20;19.90;;;;;;;-2.98;76.52;98190.40;105869;1257;107271;-76
2023/11/29 11:14:20;;;;;;;45.60;21.30;;;;;;;-2.98;76.62;98190.22;105305;1256;94597;-78
2023/11/29 11:17:03;;;;;;;42.50;19.00;;;;;;;-2.93;76.63;98186.26;105330;1258;201451;-81
2023/11/29 11:19:41;;;;;;;43.30;19.60;;;;;;;-2.89;76.73;98186.28;105631;1251;94386;-82
2023/11/29 11:22:18;;;;;;;42.70;18.50;;;;;;;-2.87;76.45;98193.86;106010;1254;94318;-83
2023/11/29 11:25:12;;;;;;;39.50;17.30;;;;;;;-2.88;76.63;98191.64;106218;1253;107245;-76
2023/11/29 11:27:43;;;;;;;;;;;;;;;-2.82;76.61;98195.95;105678;1250;95230;-76
2023/11/29 11:30:14;;;;;;;40.40;17.90;;;;;;;-2.80;76.52;98203.69;105906;1254;107253;-79
2023/11/29 11:32:47;;;;;;;45.20;18.90;;;;;;;-2.80;76.49;98204.94;105720;1254;95232;-76
2023/11/29 11:35:21;;;;;;;55.50;28.10;;;;;;;-2.86;76.07;98206.50;105420;1254;95160;-76
2023/11/29 11:38:01;;;;;;;53.60;23.10;;;;;;;-2.95;76.22;98208.53;105597;1253;108133;-74
2023/11/29 11:40:33;;;;;;;47.60;22.40;;;;;;;-3.03;76.05;98212.76;105859;1256;97059;-77
2023/11/29 11:43:04;;;;;;;49.90;23.50;;;;;;;-3.08;76.22;98216.20;105452;1266;107676;-78
2023/11/29 11:45:34;;;;;;;55.30;24.30;;;;;;;-3.05;76.39;98218.20;105473;1254;95952;-78
2023/11/29 11:48:04;;;;;;;61.90;27.30;;;;;;;-3.03;76.26;98222.98;105458;1254;95174;-79
2023/11/29 11:50:35;;;;;;;;;;;;;;;-2.99;76.20;98225.30;106958;1250;108711;-79
2023/11/29 11:53:05;;;;;;;58.70;27.20;;;;;;;-3.05;76.04;98222.19;105917;1252;95225;-79
2023/11/29 11:55:39;;;;;;;70.60;31.90;;;;;;;-3.03;76.21;98222.12;105552;1251;107206;-79
2023/11/29 11:58:09;;;;;;;56.80;25.90;;;;;;;-2.95;76.16;98224.64;105636;1250;95260;-78